Time;durP1;ratioP1;P1;durP2;ratioP2;P2;SDS_P1;SDS_P2;PMS_P1;PMS_P2;Temp;Humidity;BMP_temperature;BMP_pressure;BME280_temperature;BME280_humidity;BME280_pressure;Samples;Min_cycle;Max_cycle;Signal;HPM_P1;HPM_P2
2022/05/21 00:01:24;;;;;;;12.95;9.52;;;;;;;;;;4835638;29;20767;-72
2022/05/21 00:03:54;;;;;;;14.38;9.85;;;;;;;;;;4835438;29;20056;-72
2022/05/21 00:06:24;;;;;;;13.65;8.80;;;;;;;;;;4835721;29;20042;-73
2022/05/21 00:08:54;;;;;;;21.27;10.85;;;;;;;;;;4818215;29;20046;-73
2022/05/21 00:11:24;;;;;;;16.45;11.20;;;;;;;;;;4834330;29;20133;-72
2022/05/21 00:13:56;;;;;;;14.27;8.35;;;;;;;;;;4835293;29;20048;-73
2022/05/21 00:16:26;;;;;;;11.25;8.38;;;;;;;;;;4818601;29;20060;-71
2022/05/21 00:18:57;;;;;;;13.03;7.30;;;;;;;;;;4835544;29;20056;-72
2022/05/21 00:21:27;;;;;;;14.95;7.55;;;;;;;;;;4833906;29;20053;-72
2022/05/21 00:23:57;;;;;;;12.75;8.35;;;;;;;;;;4835620;29;20065;-72
2022/05/21 00:26:27;;;;;;;11.52;8.65;;;;;;;;;;4835858;29;20526;-72
2022/05/21 00:28:57;;;;;;;17.40;9.35;;;;;;;;;;4835329;29;20061;-75
2022/05/21 00:31:27;;;;;;;17.13;9.98;;;;;;;;;;4836074;29;20411;-77
2022/05/21 00:33:58;;;;;;;14.05;8.48;;;;;;;;;;4835629;29;20056;-73
2022/05/21 00:36:29;;;;;;;22.40;11.25;;;;;;;;;;4835460;29;20054;-74
2022/05/21 00:39:00;;;;;;;19.08;11.43;;;;;;;;;;4835841;29;20410;-73
2022/05/21 00:41:31;;;;;;;15.38;9.63;;;;;;;;;;4833874;29;20078;-73
2022/05/21 00:44:02;;;;;;;15.93;6.40;;;;;;;;;;4834693;29;20057;-72
2022/05/21 00:46:42;;;;;;;11.60;6.65;;;;;;;;;;4835786;29;21046;-73
2022/05/21 00:49:18;;;;;;;19.20;10.10;;;;;;;;;;4836408;29;20058;-74
2022/05/21 00:51:54;;;;;;;18.15;10.98;;;;;;;;;;4835853;29;20046;-73
2022/05/21 00:54:29;;;;;;;17.60;13.07;;;;;;;;;;4834895;29;20502;-73
2022/05/21 00:57:24;;;;;;;15.35;11.60;;;;;;;;;;4833086;29;20061;-73
2022/05/21 01:00:03;;;;;;;15.88;10.80;;;;;;;;;;4826905;29;20422;-73
2022/05/21 01:02:40;;;;;;;17.45;10.70;;;;;;;;;;4834836;29;20049;-73
2022/05/21 01:05:13;;;;;;;13.13;8.15;;;;;;;;;;4834971;29;20057;-73
2022/05/21 01:07:45;;;;;;;12.68;7.65;;;;;;;;;;4835637;29;20108;-73
2022/05/21 01:10:19;;;;;;;6.93;5.63;;;;;;;;;;4834715;29;20494;-72
2022/05/21 01:12:54;;;;;;;6.88;4.53;;;;;;;;;;4833445;29;20057;-75
2022/05/21 01:15:40;;;;;;;12.55;5.30;;;;;;;;;;4832966;29;20550;-72
2022/05/21 01:18:10;;;;;;;10.50;5.18;;;;;;;;;;4832838;29;20065;-72
2022/05/21 01:20:48;;;;;;;6.07;5.03;;;;;;;;;;4833560;29;20060;-73
2022/05/21 01:23:19;;;;;;;7.38;5.70;;;;;;;;;;4835101;29;20058;-73
2022/05/21 01:25:51;;;;;;;9.48;6.80;;;;;;;;;;4836353;29;20180;-72
2022/05/21 01:28:22;;;;;;;;;;;;;;;;;;4838406;29;20522;-74
2022/05/21 01:30:55;;;;;;;11.27;7.47;;;;;;;;;;4839456;29;19932;-72
2022/05/21 01:33:33;;;;;;;13.80;7.13;;;;;;;;;;4838736;29;20402;-72
2022/05/21 01:36:06;;;;;;;10.20;7.30;;;;;;;;;;4838638;29;20057;-72
2022/05/21 01:38:38;;;;;;;14.20;7.30;;;;;;;;;;4838338;29;20065;-73
2022/05/21 01:41:09;;;;;;;8.57;6.72;;;;;;;;;;4838273;29;20053;-73
2022/05/21 01:46:29;;;;;;;11.13;6.45;;;;;;;;;;4838503;29;20056;-72
2022/05/21 01:48:59;;;;;;;11.88;7.30;;;;;;;;;;4837836;29;20054;-72
2022/05/21 01:51:30;;;;;;;15.60;7.88;;;;;;;;;;4837876;29;20514;-74
2022/05/21 01:54:00;;;;;;;8.85;6.57;;;;;;;;;;4838123;29;20054;-72
2022/05/21 01:56:30;;;;;;;8.25;6.47;;;;;;;;;;4838500;29;20054;-72
2022/05/21 01:59:00;;;;;;;9.65;7.25;;;;;;;;;;4802721;29;20077;-72
2022/05/21 02:01:30;;;;;;;15.95;7.68;;;;;;;;;;4817648;29;20058;-71
2022/05/21 02:04:00;;;;;;;11.85;7.47;;;;;;;;;;4820082;29;20060;-72
2022/05/21 02:06:30;;;;;;;13.77;7.47;;;;;;;;;;4820272;29;20058;-71
2022/05/21 02:09:00;;;;;;;14.60;7.05;;;;;;;;;;4819971;29;20061;-72
2022/05/21 02:11:30;;;;;;;13.57;8.00;;;;;;;;;;4819737;29;20069;-72
2022/05/21 02:14:00;;;;;;;11.15;7.47;;;;;;;;;;4819303;29;20057;-71
2022/05/21 02:16:30;;;;;;;12.98;6.35;;;;;;;;;;4819427;29;20053;-72
2022/05/21 02:19:05;;;;;;;10.60;5.82;;;;;;;;;;4819206;29;20058;-72
2022/05/21 02:21:39;;;;;;;10.23;6.57;;;;;;;;;;4819220;29;20058;-72
2022/05/21 02:24:10;;;;;;;16.35;7.95;;;;;;;;;;4819344;29;20058;-73
2022/05/21 02:26:40;;;;;;;11.70;7.47;;;;;;;;;;4819329;29;20522;-71
2022/05/21 02:29:10;;;;;;;10.23;7.20;;;;;;;;;;4819320;29;20066;-72
2022/05/21 02:31:40;;;;;;;13.07;8.77;;;;;;;;;;4819119;29;20062;-71
2022/05/21 02:34:10;;;;;;;15.15;8.80;;;;;;;;;;4818939;29;20054;-72
2022/05/21 02:39:29;;;;;;;10.02;7.70;;;;;;;;;;4819484;29;20058;-72
2022/05/21 02:42:00;;;;;;;14.93;7.55;;;;;;;;;;4817183;29;20415;-72
2022/05/21 02:44:31;;;;;;;13.13;6.60;;;;;;;;;;4819118;29;20070;-72
2022/05/21 02:47:01;;;;;;;7.65;6.20;;;;;;;;;;4818925;29;20050;-72
2022/05/21 02:49:32;;;;;;;9.10;6.07;;;;;;;;;;4819123;29;20423;-71
2022/05/21 02:52:02;;;;;;;6.45;5.30;;;;;;;;;;4819463;29;20756;-73
2022/05/21 02:54:34;;;;;;;12.40;5.55;;;;;;;;;;4819260;29;20059;-72
2022/05/21 02:57:04;;;;;;;10.02;5.57;;;;;;;;;;4819767;29;20510;-72
2022/05/21 02:59:38;;;;;;;7.70;4.85;;;;;;;;;;4836488;29;20060;-73
2022/05/21 03:02:09;;;;;;;9.40;4.68;;;;;;;;;;4837102;29;20049;-72
2022/05/21 03:04:39;;;;;;;10.45;4.82;;;;;;;;;;4836831;29;20054;-72
2022/05/21 03:07:09;;;;;;;10.27;4.68;;;;;;;;;;4836406;29;20054;-72
2022/05/21 03:12:28;;;;;;;12.27;4.85;;;;;;;;;;4836337;29;20076;-72
2022/05/21 03:14:58;;;;;;;9.55;5.05;;;;;;;;;;4836856;29;20054;-72
2022/05/21 03:17:29;;;;;;;7.13;4.35;;;;;;;;;;4835560;29;20545;-72
2022/05/21 03:19:59;;;;;;;9.27;4.88;;;;;;;;;;4836727;29;20510;-72
2022/05/21 03:22:29;;;;;;;9.30;4.80;;;;;;;;;;4836356;29;20046;-72
2022/05/21 03:24:59;;;;;;;9.13;4.47;;;;;;;;;;4836848;29;20046;-72
2022/05/21 03:27:31;;;;;;;8.45;4.20;;;;;;;;;;4836407;29;20073;-72
2022/05/21 03:30:03;;;;;;;8.60;4.13;;;;;;;;;;4820818;29;20536;-71
2022/05/21 03:32:34;;;;;;;9.60;4.13;;;;;;;;;;4836074;29;20050;-72
2022/05/21 03:35:06;;;;;;;10.15;4.35;;;;;;;;;;4836441;29;20062;-72
2022/05/21 03:37:37;;;;;;;3.75;3.40;;;;;;;;;;4836441;29;20604;-73
2022/05/21 03:40:11;;;;;;;7.13;4.18;;;;;;;;;;4836345;29;20064;-72
2022/05/21 03:42:41;;;;;;;8.32;3.63;;;;;;;;;;4835981;29;20054;-75
2022/05/21 03:45:12;;;;;;;6.65;4.03;;;;;;;;;;4818639;29;20065;-71
2022/05/21 03:47:44;;;;;;;5.88;4.55;;;;;;;;;;4835666;29;20076;-72
2022/05/21 03:50:17;;;;;;;7.75;4.18;;;;;;;;;;4836843;29;20054;-72
2022/05/21 03:52:47;;;;;;;9.52;4.60;;;;;;;;;;4836318;29;20061;-72
2022/05/21 03:55:17;;;;;;;11.60;5.10;;;;;;;;;;4835579;29;20057;-72
2022/05/21 03:57:47;;;;;;;6.13;4.80;;;;;;;;;;4835929;29;20502;-72
2022/05/21 04:00:19;;;;;;;10.60;4.88;;;;;;;;;;4835278;29;20054;-72
2022/05/21 04:02:50;;;;;;;6.55;4.80;;;;;;;;;;4836683;29;20471;-71
2022/05/21 04:05:20;;;;;;;8.52;4.75;;;;;;;;;;4835928;29;20057;-72
2022/05/21 04:07:51;;;;;;;8.07;5.45;;;;;;;;;;4835354;29;20064;-72
2022/05/21 04:10:20;;;;;;;6.50;4.30;;;;;;;;;;4835583;29;20058;-72
2022/05/21 04:12:51;;;;;;;7.40;5.07;;;;;;;;;;4834942;29;20069;-72
2022/05/21 04:15:21;;;;;;;8.55;4.80;;;;;;;;;;4835761;29;20080;-72
2022/05/21 04:17:54;;;;;;;11.00;4.88;;;;;;;;;;4836158;29;20080;-72
2022/05/21 04:20:25;;;;;;;8.40;4.93;;;;;;;;;;4835838;29;20046;-71
2022/05/21 04:22:55;;;;;;;9.93;4.95;;;;;;;;;;4835537;29;20503;-72
2022/05/21 04:25:25;;;;;;;9.00;5.50;;;;;;;;;;4835153;29;20073;-72
2022/05/21 04:27:55;;;;;;;15.68;5.85;;;;;;;;;;4835425;29;20434;-72
2022/05/21 04:30:28;;;;;;;14.82;5.60;;;;;;;;;;4835710;29;20057;-72
2022/05/21 04:32:59;;;;;;;9.70;5.15;;;;;;;;;;4835617;29;20230;-74
2022/05/21 04:36:17;;;;;;;8.20;4.30;;;;;;;;;;4818564;29;20054;-71
2022/05/21 04:38:19;;;;;;;13.52;5.30;;;;;;;;;;4835542;29;20050;-72
2022/05/21 04:40:49;;;;;;;13.23;5.80;;;;;;;;;;4835424;29;20057;-73
2022/05/21 04:43:19;;;;;;;9.07;5.35;;;;;;;;;;4820107;29;20501;-72
2022/05/21 04:45:49;;;;;;;10.55;5.60;;;;;;;;;;4835638;29;20172;-73
2022/05/21 04:48:19;;;;;;;9.65;5.32;;;;;;;;;;4835185;29;20054;-72
2022/05/21 04:50:49;;;;;;;10.35;4.85;;;;;;;;;;4835866;29;20559;-73
2022/05/21 04:53:19;;;;;;;7.93;4.50;;;;;;;;;;4835753;29;20053;-74
2022/05/21 04:55:49;;;;;;;4.78;3.85;;;;;;;;;;4835444;29;20045;-72
2022/05/21 04:58:19;;;;;;;5.75;3.88;;;;;;;;;;4839358;29;20058;-72
2022/05/21 05:00:49;;;;;;;8.27;5.53;;;;;;;;;;4838052;29;20046;-71
2022/05/21 05:03:20;;;;;;;10.65;5.65;;;;;;;;;;4838269;29;20088;-72
2022/05/21 05:05:50;;;;;;;8.27;5.57;;;;;;;;;;4838614;29;20058;-72
2022/05/21 05:08:21;;;;;;;6.82;5.60;;;;;;;;;;4839027;29;20060;-72
2022/05/21 05:10:52;;;;;;;14.90;6.00;;;;;;;;;;4839110;29;20049;-72
2022/05/21 05:13:21;;;;;;;16.17;5.32;;;;;;;;;;4838670;29;20058;-71
2022/05/21 05:15:52;;;;;;;8.63;5.53;;;;;;;;;;4838706;29;20057;-72
2022/05/21 05:18:23;;;;;;;9.45;4.57;;;;;;;;;;4839178;29;20714;-72
2022/05/21 05:20:54;;;;;;;12.32;5.05;;;;;;;;;;4838524;29;20065;-73
2022/05/21 05:23:24;;;;;;;9.30;5.20;;;;;;;;;;4838671;29;20058;-72
2022/05/21 05:25:54;;;;;;;16.30;5.70;;;;;;;;;;4821812;29;20076;-77
2022/05/21 05:28:24;;;;;;;8.95;5.28;;;;;;;;;;4838713;29;20509;-73
2022/05/21 05:30:54;;;;;;;10.77;5.03;;;;;;;;;;4839269;29;20462;-72
2022/05/21 05:33:26;;;;;;;13.82;5.18;;;;;;;;;;4838221;29;20062;-72
2022/05/21 05:35:56;;;;;;;23.10;5.90;;;;;;;;;;4839059;29;20054;-73
2022/05/21 05:38:26;;;;;;;8.70;5.47;;;;;;;;;;4839115;29;20054;-72
2022/05/21 05:40:56;;;;;;;10.23;6.13;;;;;;;;;;4838546;29;20168;-73
2022/05/21 05:43:26;;;;;;;48.28;16.20;;;;;;;;;;4838394;29;20050;-73
2022/05/21 05:45:59;;;;;;;38.55;8.52;;;;;;;;;;4838141;29;20050;-72
2022/05/21 05:48:30;;;;;;;10.75;6.38;;;;;;;;;;4838392;29;20057;-73
2022/05/21 05:51:02;;;;;;;14.95;8.00;;;;;;;;;;4838196;29;20060;-73
2022/05/21 05:53:32;;;;;;;11.50;8.52;;;;;;;;;;4838430;29;20050;-71
2022/05/21 05:56:07;;;;;;;21.85;9.70;;;;;;;;;;4837976;29;20050;-72
2022/05/21 06:01:27;;;;;;;32.42;7.18;;;;;;;;;;4838522;29;20494;-72
2022/05/21 06:03:58;;;;;;;11.85;6.85;;;;;;;;;;4838673;29;20511;-73
2022/05/21 06:06:28;;;;;;;49.35;7.88;;;;;;;;;;4837952;29;20050;-73
2022/05/21 06:08:59;;;;;;;17.23;6.95;;;;;;;;;;4837646;29;20069;-73
2022/05/21 06:11:33;;;;;;;37.53;8.10;;;;;;;;;;4837458;29;20522;-73
2022/05/21 06:14:03;;;;;;;34.80;7.68;;;;;;;;;;4838000;29;20065;-73
2022/05/21 06:16:33;;;;;;;42.88;7.55;;;;;;;;;;4838403;29;20058;-74
2022/05/21 06:19:03;;;;;;;19.70;6.13;;;;;;;;;;4837598;29;20046;-73
2022/05/21 06:21:33;;;;;;;11.38;6.07;;;;;;;;;;4836414;29;20061;-73
2022/05/21 06:24:03;;;;;;;14.48;5.82;;;;;;;;;;4817278;29;20058;-73
2022/05/21 06:26:33;;;;;;;13.85;5.93;;;;;;;;;;4834265;29;20061;-73
2022/05/21 06:29:03;;;;;;;47.25;11.23;;;;;;;;;;4834730;29;20072;-73
2022/05/21 06:31:33;;;;;;;40.03;10.93;;;;;;;;;;4838367;29;20418;-73
2022/05/21 06:34:03;;;;;;;69.00;12.05;;;;;;;;;;4837929;29;20116;-74
2022/05/21 06:36:33;;;;;;;43.58;14.32;;;;;;;;;;4837417;29;20422;-73
2022/05/21 06:39:03;;;;;;;41.20;12.38;;;;;;;;;;4837418;29;20050;-73
2022/05/21 06:41:34;;;;;;;19.52;12.25;;;;;;;;;;4837340;29;20053;-72
2022/05/21 06:44:04;;;;;;;18.05;12.43;;;;;;;;;;4837103;29;20456;-72
2022/05/21 06:46:34;;;;;;;24.00;13.18;;;;;;;;;;4821369;29;20049;-73
2022/05/21 06:49:04;;;;;;;22.67;13.13;;;;;;;;;;4837053;29;20098;-72
2022/05/21 06:51:33;;;;;;;24.67;12.52;;;;;;;;;;4837510;29;20560;-73
2022/05/21 06:54:03;;;;;;;20.05;12.40;;;;;;;;;;4837636;29;20050;-73
2022/05/21 06:56:33;;;;;;;17.50;11.00;;;;;;;;;;4837513;29;20042;-73
2022/05/21 06:59:03;;;;;;;15.90;10.57;;;;;;;;;;4836481;29;20053;-72
2022/05/21 07:01:33;;;;;;;13.15;9.32;;;;;;;;;;4836218;29;20414;-72
2022/05/21 07:04:03;;;;;;;35.72;15.05;;;;;;;;;;4837122;29;20050;-73
2022/05/21 07:09:22;;;;;;;62.67;25.15;;;;;;;;;;4837449;29;20046;-73
2022/05/21 07:12:01;;;;;;;45.00;18.92;;;;;;;;;;4836391;29;20054;-73
2022/05/21 07:14:49;;;;;;;23.55;12.02;;;;;;;;;;4840238;29;20061;-73
2022/05/21 07:17:19;;;;;;;35.40;8.95;;;;;;;;;;4836680;29;20050;-73
2022/05/21 07:19:49;;;;;;;28.45;8.70;;;;;;;;;;4836890;29;20525;-73
2022/05/21 07:22:33;;;;;;;23.88;7.47;;;;;;;;;;4835954;29;20065;-73
2022/05/21 07:25:05;;;;;;;38.70;8.18;;;;;;;;;;4836953;29;20482;-73
2022/05/21 07:27:34;;;;;;;19.48;7.88;;;;;;;;;;4820532;29;20054;-73
2022/05/21 07:30:05;;;;;;;14.77;6.55;;;;;;;;;;4836371;29;20053;-73
2022/05/21 07:32:35;;;;;;;15.27;6.78;;;;;;;;;;4819897;29;20057;-73
2022/05/21 07:35:09;;;;;;;10.10;5.38;;;;;;;;;;4836174;29;20062;-73
2022/05/21 07:37:44;;;;;;;12.68;5.68;;;;;;;;;;4836839;29;20060;-73
2022/05/21 07:40:16;;;;;;;8.45;5.20;;;;;;;;;;4836110;29;20053;-72
2022/05/21 07:42:46;;;;;;;11.57;5.13;;;;;;;;;;4836745;29;20057;-72
2022/05/21 07:45:19;;;;;;;16.83;4.97;;;;;;;;;;4836153;29;20050;-72
2022/05/21 07:47:50;;;;;;;10.73;4.85;;;;;;;;;;4836649;29;20069;-73
2022/05/21 07:50:22;;;;;;;6.55;5.10;;;;;;;;;;4835583;29;20050;-73
2022/05/21 07:52:52;;;;;;;8.18;4.65;;;;;;;;;;4836648;29;20064;-74
2022/05/21 07:55:22;;;;;;;6.55;3.97;;;;;;;;;;4835609;29;20061;-72
2022/05/21 07:57:53;;;;;;;13.55;4.63;;;;;;;;;;4835556;29;20062;-73
2022/05/21 08:00:22;;;;;;;5.47;4.32;;;;;;;;;;4835428;29;20050;-73
2022/05/21 08:02:52;;;;;;;9.88;4.70;;;;;;;;;;4820317;29;20077;-73
2022/05/21 08:05:22;;;;;;;8.93;4.43;;;;;;;;;;4835618;29;20077;-73
2022/05/21 08:07:52;;;;;;;4.18;3.78;;;;;;;;;;4836013;29;20406;-73
2022/05/21 08:10:23;;;;;;;7.53;4.45;;;;;;;;;;4835397;29;20061;-73
2022/05/21 08:12:55;;;;;;;10.93;4.30;;;;;;;;;;4835547;29;20061;-73
2022/05/21 08:15:25;;;;;;;5.45;3.72;;;;;;;;;;4835395;29;20418;-73
2022/05/21 08:17:55;;;;;;;8.40;4.13;;;;;;;;;;4835439;29;20061;-73
2022/05/21 08:20:28;;;;;;;7.55;4.40;;;;;;;;;;4834757;29;20057;-73
2022/05/21 08:28:36;;;;;;;7.65;5.65;;;;;;;;;;4836042;29;20057;-73
2022/05/21 08:31:06;;;;;;;39.38;6.97;;;;;;;;;;4834857;29;20050;-73
2022/05/21 08:33:36;;;;;;;22.40;6.20;;;;;;;;;;4819885;29;20062;-73
2022/05/21 08:36:07;;;;;;;21.20;6.72;;;;;;;;;;4835179;29;20506;-72
2022/05/21 08:38:37;;;;;;;32.38;7.25;;;;;;;;;;4835848;29;20049;-73
2022/05/21 08:41:14;;;;;;;16.77;6.40;;;;;;;;;;4835187;29;20041;-73
2022/05/21 08:44:05;;;;;;;68.60;8.00;;;;;;;;;;4835629;29;20050;-73
2022/05/21 08:46:38;;;;;;;68.25;7.82;;;;;;;;;;4835291;29;20046;-72
2022/05/21 08:49:19;;;;;;;21.83;6.75;;;;;;;;;;4835187;29;20054;-73
2022/05/21 08:51:56;;;;;;;42.88;7.30;;;;;;;;;;4835215;29;20042;-72
2022/05/21 08:54:33;;;;;;;61.53;7.68;;;;;;;;;;4835809;29;20077;-73
2022/05/21 08:57:04;;;;;;;30.45;6.55;;;;;;;;;;4835451;29;20058;-73
2022/05/21 08:59:45;;;;;;;59.63;8.00;;;;;;;;;;4835417;29;20049;-72
2022/05/21 09:02:20;;;;;;;38.50;6.72;;;;;;;;;;4833721;29;20061;-73
2022/05/21 09:04:50;;;;;;;82.25;7.43;;;;;;;;;;4835669;29;20854;-73
2022/05/21 09:07:25;;;;;;;69.30;7.43;;;;;;;;;;4835917;29;20049;-73
2022/05/21 09:10:03;;;;;;;95.03;8.45;;;;;;;;;;4835394;29;20061;-73
2022/05/21 09:12:57;;;;;;;64.07;7.15;;;;;;;;;;4834513;29;20046;-73
2022/05/21 09:18:16;;;;;;;77.03;7.80;;;;;;;;;;4835434;29;20046;-74
2022/05/21 09:21:06;;;;;;;28.33;7.25;;;;;;;;;;4818173;29;20533;-73
2022/05/21 09:24:00;;;;;;;17.23;6.68;;;;;;;;;;4834993;29;20046;-72
2022/05/21 09:26:50;;;;;;;21.90;6.20;;;;;;;;;;4835306;29;20053;-73
2022/05/21 09:29:28;;;;;;;102.00;6.57;;;;;;;;;;4835744;29;20050;-73
2022/05/21 09:31:59;;;;;;;103.28;7.95;;;;;;;;;;4835587;29;20062;-73
2022/05/21 09:34:32;;;;;;;136.73;8.02;;;;;;;;;;4835425;29;20057;-73
2022/05/21 09:37:02;;;;;;;64.95;7.20;;;;;;;;;;4834835;29;20053;-73
2022/05/21 09:39:41;;;;;;;138.07;9.02;;;;;;;;;;4835547;29;20411;-73
2022/05/21 09:45:32;;;;;;;60.13;5.60;;;;;;;;;;4838544;29;20502;-73
2022/05/21 09:48:06;;;;;;;42.95;6.28;;;;;;;;;;4834882;29;20514;-73
2022/05/21 09:50:50;;;;;;;59.70;6.90;;;;;;;;;;4838250;29;20434;-72
2022/05/21 09:53:39;;;;;;;88.95;6.78;;;;;;;;;;4838086;29;20065;-73
2022/05/21 09:56:19;;;;;;;37.42;7.40;;;;;;;;;;4838103;29;20686;-74
2022/05/21 09:59:09;;;;;;;41.10;6.55;;;;;;;;;;4838234;29;20432;-73
2022/05/21 10:01:45;;;;;;;17.33;5.10;;;;;;;;;;4837895;29;20665;-73
2022/05/21 10:04:20;;;;;;;16.42;4.75;;;;;;;;;;4837856;29;20057;-73
2022/05/21 10:06:57;;;;;;;16.33;3.88;;;;;;;;;;4821569;29;20125;-73
2022/05/21 10:12:43;;;;;;;6.00;3.35;;;;;;;;;;4836930;29;20066;-73
2022/05/21 10:15:21;;;;;;;3.40;2.83;;;;;;;;;;4837139;29;20536;-74
2022/05/21 10:18:07;;;;;;;5.13;2.97;;;;;;;;;;4837294;29;20053;-74
2022/05/21 10:20:44;;;;;;;3.83;2.30;;;;;;;;;;4837064;29;20054;-73
2022/05/21 10:23:28;;;;;;;3.92;3.00;;;;;;;;;;4837235;29;20141;-73
2022/05/21 10:26:08;;;;;;;3.83;2.55;;;;;;;;;;4821405;29;20065;-73
2022/05/21 10:28:54;;;;;;;13.48;2.90;;;;;;;;;;4838290;29;20065;-73
2022/05/21 10:31:59;;;;;;;5.00;2.10;;;;;;;;;;4836946;29;20057;-73
2022/05/21 10:34:54;;;;;;;3.50;2.50;;;;;;;;;;4788304;29;20514;-74
2022/05/21 10:37:52;;;;;;;5.72;2.45;;;;;;;;;;4835907;29;20274;-77
2022/05/21 10:40:53;;;;;;;2.70;2.45;;;;;;;;;;4835308;29;20052;-73
2022/05/21 10:43:45;;;;;;;2.33;2.13;;;;;;;;;;4837066;29;20069;-73
2022/05/21 10:46:51;;;;;;;2.45;2.25;;;;;;;;;;4811700;29;20058;-76
2022/05/21 10:49:48;;;;;;;6.70;2.88;;;;;;;;;;4835800;29;20440;-73
2022/05/21 10:52:32;;;;;;;2.60;2.40;;;;;;;;;;4836963;29;20050;-74
2022/05/21 10:55:27;;;;;;;2.35;2.15;;;;;;;;;;4820749;29;20046;-73
2022/05/21 10:58:20;;;;;;;2.92;2.60;;;;;;;;;;4836864;29;20069;-74
2022/05/21 11:01:02;;;;;;;;;;;;;;;;;;4837553;29;20057;-73
2022/05/21 11:03:56;;;;;;;4.13;1.95;;;;;;;;;;4835920;29;19929;-75
2022/05/21 11:06:43;;;;;;;13.23;3.15;;;;;;;;;;4836857;29;20050;-76
2022/05/21 11:09:22;;;;;;;9.48;2.30;;;;;;;;;;4836635;29;20509;-74
2022/05/21 11:12:01;;;;;;;3.72;2.42;;;;;;;;;;4837978;29;20069;-73
2022/05/21 11:14:43;;;;;;;8.05;2.85;;;;;;;;;;4838213;29;20046;-74
2022/05/21 11:17:31;;;;;;;5.95;3.15;;;;;;;;;;4836294;29;20064;-74
2022/05/21 11:20:18;;;;;;;8.35;2.42;;;;;;;;;;4836505;29;20053;-74
2022/05/21 11:23:07;;;;;;;2.67;2.30;;;;;;;;;;4837650;29;20054;-74
2022/05/21 11:25:53;;;;;;;6.28;1.75;;;;;;;;;;4837293;29;20521;-77
2022/05/21 11:28:43;;;;;;;4.80;1.77;;;;;;;;;;4819661;29;20494;-80
2022/05/21 11:37:23;;;;;;;7.13;2.20;;;;;;;;;;4835814;29;20092;-74
2022/05/21 11:39:57;;;;;;;4.60;1.98;;;;;;;;;;4836947;29;20046;-74
2022/05/21 11:42:28;;;;;;;14.07;1.77;;;;;;;;;;4836083;29;20058;-74
2022/05/21 11:45:25;;;;;;;6.38;1.75;;;;;;;;;;4836212;29;20530;-74
2022/05/21 11:48:12;;;;;;;12.02;2.13;;;;;;;;;;4836777;29;20054;-74
2022/05/21 11:50:43;;;;;;;3.85;1.73;;;;;;;;;;4819519;29;20046;-74
2022/05/21 11:53:48;;;;;;;8.25;2.00;;;;;;;;;;4835590;29;20548;-71
2022/05/21 11:56:18;;;;;;;5.15;1.50;;;;;;;;;;4778950;30;20066;-76
2022/05/21 11:58:59;;;;;;;8.02;1.80;;;;;;;;;;4826765;29;20058;-73
2022/05/21 12:01:39;;;;;;;6.00;1.40;;;;;;;;;;4835655;29;20058;-73
2022/05/21 12:04:40;;;;;;;3.38;1.75;;;;;;;;;;4834864;29;20061;-73
2022/05/21 12:07:34;;;;;;;1.67;1.50;;;;;;;;;;4823803;29;20076;-73
2022/05/21 12:10:18;;;;;;;4.82;3.75;;;;;;;;;;4835175;29;20049;-73
2022/05/21 12:13:06;;;;;;;2.88;2.10;;;;;;;;;;4835970;29;20064;-75
2022/05/21 12:15:47;;;;;;;6.95;2.30;;;;;;;;;;4838207;29;20054;-77
2022/05/21 12:18:40;;;;;;;10.32;2.47;;;;;;;;;;4822055;29;20060;-77
2022/05/21 12:21:39;;;;;;;16.08;2.50;;;;;;;;;;4840020;29;20049;-77
2022/05/21 12:24:28;;;;;;;7.80;2.20;;;;;;;;;;4816279;29;20074;-77
2022/05/21 12:27:27;;;;;;;4.80;1.80;;;;;;;;;;4840989;29;20054;-77
2022/05/21 12:30:02;;;;;;;9.73;2.80;;;;;;;;;;4841557;29;20057;-77
2022/05/21 12:32:40;;;;;;;4.68;2.03;;;;;;;;;;4840772;29;20054;-78
2022/05/21 12:35:33;;;;;;;11.73;2.28;;;;;;;;;;4839696;29;20057;-79
2022/05/21 12:38:13;;;;;;;3.95;2.13;;;;;;;;;;4839403;29;20050;-79
2022/05/21 12:41:13;;;;;;;7.18;2.13;;;;;;;;;;4839168;29;20414;-80
2022/05/21 12:43:47;;;;;;;15.40;2.95;;;;;;;;;;4836134;29;20058;-78
2022/05/21 12:46:31;;;;;;;4.72;1.58;;;;;;;;;;4837901;29;20050;-77
2022/05/21 12:49:09;;;;;;;6.70;2.30;;;;;;;;;;4821207;29;20057;-78
2022/05/21 12:51:43;;;;;;;7.80;2.13;;;;;;;;;;4838422;29;20502;-78
2022/05/21 12:54:23;;;;;;;2.00;1.52;;;;;;;;;;4838221;29;20042;-78
2022/05/21 12:56:59;;;;;;;6.57;1.87;;;;;;;;;;4836780;29;20407;-80
2022/05/21 12:59:30;;;;;;;8.00;1.63;;;;;;;;;;4838494;29;20050;-79
2022/05/21 13:02:10;;;;;;;23.70;2.55;;;;;;;;;;4838297;29;20050;-78
2022/05/21 13:04:45;;;;;;;10.13;1.73;;;;;;;;;;4840149;29;20053;-79
2022/05/21 13:07:20;;;;;;;3.58;1.52;;;;;;;;;;4841117;29;20499;-78
2022/05/21 13:09:57;;;;;;;7.10;2.20;;;;;;;;;;4841661;29;20052;-78
2022/05/21 13:12:39;;;;;;;4.45;1.50;;;;;;;;;;4840820;29;20054;-78
2022/05/21 13:15:18;;;;;;;2.85;1.75;;;;;;;;;;4840659;29;20042;-78
2022/05/21 13:18:03;;;;;;;7.00;1.45;;;;;;;;;;4841898;29;20428;-81
2022/05/21 13:20:33;;;;;;;5.90;1.52;;;;;;;;;;4843987;29;20450;-79
2022/05/21 13:23:15;;;;;;;6.80;1.58;;;;;;;;;;4827062;29;20065;-78
2022/05/21 13:25:56;;;;;;;4.18;1.75;;;;;;;;;;4843061;29;20053;-78
2022/05/21 13:28:27;;;;;;;11.37;2.07;;;;;;;;;;4842946;29;20062;-77
2022/05/21 13:30:56;;;;;;;4.43;1.65;;;;;;;;;;4842580;29;20056;-78
2022/05/21 13:33:45;;;;;;;3.67;1.60;;;;;;;;;;4844154;29;20069;-78
2022/05/21 13:36:19;;;;;;;11.55;2.20;;;;;;;;;;4843438;29;20354;-78
2022/05/21 13:38:56;;;;;;;5.43;1.83;;;;;;;;;;4842847;29;20060;-79
2022/05/21 13:41:39;;;;;;;20.27;2.83;;;;;;;;;;4842940;29;20414;-79
2022/05/21 13:44:19;;;;;;;9.00;1.80;;;;;;;;;;4842656;29;20057;-78
2022/05/21 13:46:55;;;;;;;7.90;1.83;;;;;;;;;;4843092;29;20054;-78
2022/05/21 13:49:34;;;;;;;4.00;1.60;;;;;;;;;;4842365;29;20287;-78
2022/05/21 13:52:06;;;;;;;5.57;1.90;;;;;;;;;;4844361;29;20049;-78
2022/05/21 13:54:39;;;;;;;7.13;1.58;;;;;;;;;;4843165;29;20061;-78
2022/05/21 13:57:22;;;;;;;6.05;1.67;;;;;;;;;;4840800;29;20430;-78
2022/05/21 14:00:03;;;;;;;7.68;2.00;;;;;;;;;;4840377;29;20068;-78
2022/05/21 14:02:43;;;;;;;6.88;1.73;;;;;;;;;;4844975;29;20062;-77
2022/05/21 14:05:34;;;;;;;7.88;1.73;;;;;;;;;;4839651;29;20046;-77
2022/05/21 14:08:06;;;;;;;2.70;1.67;;;;;;;;;;4839983;29;20057;-78
2022/05/21 14:10:45;;;;;;;30.17;4.47;;;;;;;;;;4839856;29;20441;-79
2022/05/21 14:13:36;;;;;;;8.63;1.70;;;;;;;;;;4839102;29;20058;-78
2022/05/21 14:16:34;;;;;;;1.60;1.50;;;;;;;;;;4838093;29;20609;-77
2022/05/21 14:19:23;;;;;;;4.32;2.42;;;;;;;;;;4838838;29;20070;-78
2022/05/21 14:22:16;;;;;;;2.58;1.83;;;;;;;;;;4838408;29;20061;-80
2022/05/21 14:24:48;;;;;;;4.68;2.05;;;;;;;;;;4823360;29;20054;-78
2022/05/21 14:27:24;;;;;;;;;;;;;;;;;;4839480;29;20062;-77
2022/05/21 14:29:59;;;;;;;10.48;2.50;;;;;;;;;;4838407;29;19928;-76
2022/05/21 14:32:40;;;;;;;7.72;2.60;;;;;;;;;;4846652;29;20053;-79
2022/05/21 14:35:13;;;;;;;3.28;2.05;;;;;;;;;;4845929;29;20050;-76
2022/05/21 14:37:46;;;;;;;13.10;2.80;;;;;;;;;;4841434;29;20057;-78
2022/05/21 14:40:18;;;;;;;10.48;2.75;;;;;;;;;;4838431;29;20046;-79
2022/05/21 14:42:50;;;;;;;7.75;2.45;;;;;;;;;;4837607;29;20399;-77
2022/05/21 14:45:31;;;;;;;4.28;2.13;;;;;;;;;;4838143;29;20057;-78
2022/05/21 14:48:03;;;;;;;7.45;2.30;;;;;;;;;;4821189;29;20422;-78
2022/05/21 14:53:27;;;;;;;6.55;2.55;;;;;;;;;;4838088;29;19939;-77
2022/05/21 14:55:57;;;;;;;8.05;2.78;;;;;;;;;;4837726;29;20050;-77
2022/05/21 14:58:27;;;;;;;4.78;2.70;;;;;;;;;;4837319;29;20069;-78
2022/05/21 15:00:57;;;;;;;6.43;2.80;;;;;;;;;;4837050;29;20053;-77
2022/05/21 15:03:29;;;;;;;4.85;3.22;;;;;;;;;;4838195;29;20082;-78
2022/05/21 15:06:00;;;;;;;6.57;3.60;;;;;;;;;;4839256;29;20054;-78
2022/05/21 15:08:36;;;;;;;;;;;;;;;;;;4838317;29;20073;-77
2022/05/21 15:11:07;;;;;;;5.28;3.00;;;;;;;;;;4820809;29;19939;-77
2022/05/21 15:13:38;;;;;;;2.92;2.33;;;;;;;;;;4839182;29;20430;-77
2022/05/21 15:16:08;;;;;;;4.27;2.43;;;;;;;;;;4837960;29;20061;-78
2022/05/21 15:18:39;;;;;;;3.80;1.92;;;;;;;;;;4839364;29;20136;-78
2022/05/21 15:21:24;;;;;;;2.70;2.35;;;;;;;;;;4821480;29;20058;-77
2022/05/21 15:23:58;;;;;;;6.38;2.88;;;;;;;;;;4823429;29;20081;-79
2022/05/21 15:26:29;;;;;;;5.45;2.30;;;;;;;;;;4837597;29;20050;-79
2022/05/21 15:28:59;;;;;;;4.93;2.53;;;;;;;;;;4837748;29;20054;-77
2022/05/21 15:31:32;;;;;;;5.50;2.45;;;;;;;;;;4820472;29;20138;-76
2022/05/21 15:34:02;;;;;;;5.82;1.40;;;;;;;;;;4835465;29;20042;-77
2022/05/21 15:36:32;;;;;;;2.57;2.00;;;;;;;;;;4836016;29;20045;-76
2022/05/21 15:39:03;;;;;;;5.57;2.10;;;;;;;;;;4835262;29;20537;-78
2022/05/21 15:41:33;;;;;;;10.80;2.87;;;;;;;;;;4835431;29;20042;-75
2022/05/21 15:44:03;;;;;;;2.73;2.33;;;;;;;;;;4835552;29;20057;-77
2022/05/21 15:46:34;;;;;;;6.57;2.30;;;;;;;;;;4820365;29;20418;-77
2022/05/21 15:49:05;;;;;;;5.40;1.90;;;;;;;;;;4835498;29;20046;-77
2022/05/21 15:51:56;;;;;;;2.90;1.77;;;;;;;;;;4835242;29;20506;-76
2022/05/21 15:54:28;;;;;;;4.20;2.33;;;;;;;;;;4835905;29;20061;-77
2022/05/21 15:56:59;;;;;;;4.68;2.38;;;;;;;;;;4818544;29;20686;-77
2022/05/21 15:59:29;;;;;;;9.82;2.67;;;;;;;;;;4817201;29;20077;-76
2022/05/21 16:01:59;;;;;;;8.45;2.92;;;;;;;;;;4817883;29;20050;-77